createdAt,value
2023-04-18T00:01:12.506Z,5.72
2023-04-18T00:04:18.091Z,4.55
2023-04-18T00:07:20.719Z,7.90
2023-04-18T00:10:22.727Z,4.05
2023-04-18T00:13:24.980Z,7.03
2023-04-18T00:16:27.417Z,5.30
2023-04-18T00:19:30.548Z,4.70
2023-04-18T00:22:32.496Z,5.50
2023-04-18T00:25:34.433Z,6.75
2023-04-18T00:28:36.080Z,5.97
2023-04-18T00:31:37.835Z,5.57
2023-04-18T00:34:40.922Z,7.43
2023-04-18T00:37:42.635Z,4.75
2023-04-18T00:40:44.473Z,6.00
2023-04-18T00:43:46.347Z,6.43
2023-04-18T00:46:48.333Z,5.68
2023-04-18T00:49:51.715Z,7.60
2023-04-18T00:52:53.812Z,7.43
2023-04-18T00:55:55.705Z,5.47
2023-04-18T00:58:58.432Z,6.53
2023-04-18T01:02:00.508Z,7.15
2023-04-18T01:05:04.685Z,5.95
2023-04-18T01:08:06.906Z,7.93
2023-04-18T01:11:10.162Z,6.90
2023-04-18T01:14:12.190Z,5.18
2023-04-18T01:17:14.333Z,7.97
2023-04-18T01:20:17.637Z,5.68
2023-04-18T01:23:19.853Z,6.20
2023-04-18T01:26:23.010Z,5.95
2023-04-18T01:29:25.522Z,6.80
2023-04-18T01:32:27.356Z,6.40
2023-04-18T01:35:30.397Z,5.82
2023-04-18T01:38:32.997Z,6.63
2023-04-18T01:41:37.148Z,5.88
2023-04-18T01:44:38.884Z,6.22
2023-04-18T01:47:40.582Z,6.45
2023-04-18T01:50:45.609Z,6.00
2023-04-18T01:53:47.475Z,6.40
2023-04-18T01:56:50.544Z,8.30
2023-04-18T01:59:52.371Z,9.23
2023-04-18T02:02:54.440Z,6.22
2023-04-18T02:05:56.393Z,7.18
2023-04-18T02:08:58.137Z,6.35
2023-04-18T02:12:05.075Z,7.60
2023-04-18T02:15:07.761Z,5.47
2023-04-18T02:18:11.486Z,6.43
2023-04-18T02:21:15.119Z,5.78
2023-04-18T02:24:17.019Z,7.60
2023-04-18T02:27:20.129Z,9.85
2023-04-18T02:30:22.474Z,6.50
2023-04-18T02:33:24.424Z,7.05
2023-04-18T02:36:28.122Z,7.80
2023-04-18T02:39:29.764Z,7.60
2023-04-18T02:42:33.087Z,6.93
2023-04-18T02:45:36.196Z,5.85
2023-04-18T02:48:38.219Z,5.82
2023-04-18T02:51:41.089Z,9.23
2023-04-18T02:54:43.154Z,6.18
2023-04-18T02:57:51.390Z,6.18
2023-04-18T03:01:13.398Z,6.63
2023-04-18T03:04:28.364Z,9.10
2023-04-18T03:07:33.844Z,7.25
2023-04-18T03:10:35.757Z,7.13
2023-04-18T03:13:38.899Z,5.57
2023-04-18T03:16:41.577Z,8.85
2023-04-18T03:19:46.659Z,10.60
2023-04-18T03:22:50.409Z,7.13
2023-04-18T03:25:57.033Z,7.15
2023-04-18T03:29:02.821Z,6.45
2023-04-18T03:32:05.096Z,7.13
2023-04-18T03:35:08.101Z,8.50
2023-04-18T03:38:09.819Z,9.40
2023-04-18T03:41:14.217Z,8.55
2023-04-18T03:44:18.107Z,7.97
2023-04-18T03:47:22.274Z,6.53
2023-04-18T03:50:29.675Z,8.93
2023-04-18T03:53:32.640Z,6.65
2023-04-18T03:56:34.535Z,6.30
2023-04-18T03:59:37.711Z,12.60
2023-04-18T04:05:44.850Z,7.22
2023-04-18T04:12:08.270Z,9.73
2023-04-18T04:15:13.044Z,7.47
2023-04-18T04:18:25.412Z,9.20
2023-04-18T04:21:27.867Z,7.63
2023-04-18T04:24:33.217Z,9.07
2023-04-18T04:27:36.633Z,6.45
2023-04-18T04:30:43.860Z,7.05
2023-04-18T04:33:46.573Z,7.70
2023-04-18T04:36:54.025Z,9.57
2023-04-18T04:39:57.610Z,10.18
2023-04-18T04:43:15.517Z,8.38
2023-04-18T04:46:20.477Z,6.68
2023-04-18T04:49:25.020Z,7.93
2023-04-18T04:52:26.742Z,7.40
2023-04-18T04:55:29.137Z,8.52
2023-04-18T04:58:31.113Z,7.20
2023-04-18T05:01:54.700Z,9.98
2023-04-18T05:04:56.604Z,9.38
2023-04-18T05:07:58.393Z,11.55
2023-04-18T05:11:01.418Z,10.25
2023-04-18T05:14:03.105Z,8.32
2023-04-18T05:17:07.495Z,6.22
2023-04-18T05:20:10.156Z,8.18
2023-04-18T05:23:11.860Z,7.65
2023-04-18T05:26:13.588Z,5.95
2023-04-18T05:29:15.304Z,5.72
2023-04-18T05:32:19.971Z,8.40
2023-04-18T05:35:21.822Z,5.90
2023-04-18T05:38:23.951Z,5.90
2023-04-18T05:41:25.764Z,8.05
2023-04-18T05:44:27.809Z,8.95
2023-04-18T05:47:31.046Z,7.85
2023-04-18T05:50:32.975Z,6.55
2023-04-18T05:53:34.901Z,6.57
2023-04-18T05:56:36.848Z,7.80
2023-04-18T05:59:38.533Z,7.13
2023-04-18T06:02:41.792Z,8.13
2023-04-18T06:05:43.791Z,6.10
2023-04-18T06:08:45.691Z,7.20
2023-04-18T06:11:47.506Z,6.65
2023-04-18T06:14:49.985Z,7.72
2023-04-18T06:17:53.426Z,8.77
2023-04-18T06:20:55.157Z,8.60
2023-04-18T06:23:56.955Z,6.97
2023-04-18T06:26:58.676Z,6.38
2023-04-18T06:30:00.562Z,8.15
2023-04-18T06:33:03.992Z,7.65
2023-04-18T06:36:07.337Z,8.27
2023-04-18T06:39:09.102Z,7.60
2023-04-18T06:42:10.853Z,6.82
2023-04-18T06:45:19.797Z,10.35
2023-04-18T06:48:22.889Z,7.47
2023-04-18T06:51:24.931Z,6.32
2023-04-18T06:54:27.276Z,7.25
2023-04-18T06:57:29.265Z,6.40
2023-04-18T07:00:31.244Z,8.85
2023-04-18T07:03:34.523Z,6.38
2023-04-18T07:06:36.556Z,7.28
2023-04-18T07:09:38.278Z,6.10
2023-04-18T07:12:40.073Z,7.97
2023-04-18T07:15:41.927Z,7.10
2023-04-18T07:18:45.182Z,7.97
2023-04-18T07:21:47.222Z,8.18
2023-04-18T07:24:50.901Z,7.85
2023-04-18T07:27:52.810Z,7.28
2023-04-18T07:30:55.634Z,6.25
2023-04-18T07:33:58.948Z,7.93
2023-04-18T07:37:01.174Z,8.13
2023-04-18T07:40:04.260Z,6.00
2023-04-18T07:43:06.168Z,8.25
2023-04-18T07:46:08.277Z,8.00
2023-04-18T07:49:31.372Z,4.78
2023-04-18T07:52:33.095Z,7.53
2023-04-18T07:55:35.111Z,8.20
2023-04-18T07:58:36.967Z,8.35
2023-04-18T08:01:38.775Z,10.93
2023-04-18T08:04:41.824Z,7.30
2023-04-18T08:07:43.983Z,6.55
2023-04-18T08:10:45.986Z,6.85
2023-04-18T08:13:47.974Z,7.78
2023-04-18T08:16:49.816Z,6.45
2023-04-18T08:19:52.800Z,8.30
2023-04-18T08:23:04.754Z,6.35
2023-04-18T08:26:09.651Z,8.57
2023-04-18T08:29:12.007Z,8.70
2023-04-18T08:32:13.876Z,7.30
2023-04-18T08:35:17.048Z,9.95
2023-04-18T08:38:19.260Z,8.00
2023-04-18T08:41:23.471Z,8.68
2023-04-18T08:44:25.304Z,7.68
2023-04-18T08:47:29.138Z,6.35
2023-04-18T08:50:32.413Z,9.85
2023-04-18T08:53:34.372Z,6.75
2023-04-18T08:56:37.440Z,6.22
2023-04-18T08:59:40.162Z,8.13
2023-04-18T09:02:43.010Z,4.68
2023-04-18T09:06:07.163Z,3.47
2023-04-18T09:09:08.966Z,7.35
2023-04-18T09:12:14.195Z,3.40
2023-04-18T09:15:17.745Z,7.32
2023-04-18T09:18:19.520Z,8.18
2023-04-18T09:21:22.683Z,3.25
2023-04-18T09:24:27.042Z,5.75
2023-04-18T09:27:34.489Z,5.80
2023-04-18T09:30:37.976Z,8.30
2023-04-18T09:33:43.059Z,6.03
2023-04-18T09:36:46.639Z,6.72
2023-04-18T09:39:49.937Z,5.93
2023-04-18T09:42:54.261Z,6.70
2023-04-18T09:45:56.412Z,3.72
2023-04-18T09:48:58.322Z,6.82
2023-04-18T09:52:06.423Z,7.63
2023-04-18T09:55:09.906Z,6.85
2023-04-18T09:58:13.173Z,7.50
2023-04-18T10:01:15.621Z,5.75
2023-04-18T10:04:18.237Z,6.28
2023-04-18T10:07:23.596Z,7.63
2023-04-18T10:10:25.708Z,7.60
2023-04-18T10:13:29.134Z,6.32
2023-04-18T10:16:34.094Z,6.13
2023-04-18T10:19:38.211Z,4.68
2023-04-18T10:22:41.351Z,5.18
2023-04-18T10:25:53.569Z,6.60
2023-04-18T10:28:57.484Z,5.07
2023-04-18T10:32:05.752Z,6.10
2023-04-18T10:35:08.391Z,6.75
2023-04-18T10:38:17.686Z,5.60
2023-04-18T10:41:25.438Z,7.07
2023-04-18T10:44:27.563Z,6.65
2023-04-18T10:47:29.531Z,6.13
2023-04-18T10:50:31.267Z,3.92
2023-04-18T10:53:34.736Z,4.53
2023-04-18T10:56:36.920Z,3.60
2023-04-18T10:59:41.870Z,5.38
2023-04-18T11:02:52.507Z,4.07
2023-04-18T11:06:01.391Z,4.35
2023-04-18T11:09:12.350Z,3.20
2023-04-18T11:12:14.188Z,5.40
2023-04-18T11:15:17.793Z,3.25
2023-04-18T11:18:19.554Z,3.72
2023-04-18T11:21:21.583Z,3.85
2023-04-18T11:24:24.833Z,5.00
2023-04-18T11:27:27.009Z,3.13
2023-04-18T11:30:35.691Z,3.67
2023-04-18T11:33:37.652Z,4.68
2023-04-18T11:36:40.050Z,3.45
2023-04-18T11:39:44.677Z,3.05
2023-04-18T11:42:46.562Z,3.35
2023-04-18T11:45:53.618Z,2.33
2023-04-18T11:48:55.755Z,2.95
2023-04-18T11:51:57.674Z,2.47
2023-04-18T11:55:13.657Z,3.42
2023-04-18T11:58:15.929Z,3.75
2023-04-18T12:01:19.195Z,3.47
2023-04-18T12:04:21.342Z,4.13
2023-04-18T12:07:31.911Z,3.97
2023-04-18T12:10:36.074Z,3.15
2023-04-18T12:13:37.954Z,3.03
2023-04-18T12:16:41.549Z,2.83
2023-04-18T12:19:46.533Z,2.85
2023-04-18T12:23:09.245Z,4.20
2023-04-18T12:26:14.480Z,3.67
2023-04-18T12:29:17.363Z,3.10
2023-04-18T12:32:19.181Z,3.85
2023-04-18T12:35:21.962Z,3.15
2023-04-18T12:38:24.016Z,3.28
2023-04-18T12:41:27.014Z,3.53
2023-04-18T12:44:28.781Z,3.42
2023-04-18T12:47:31.250Z,3.28
2023-04-18T12:50:33.373Z,3.22
2023-04-18T12:53:35.282Z,2.00
2023-04-18T12:56:38.517Z,3.58
2023-04-18T12:59:40.275Z,1.90
2023-04-18T13:02:44.136Z,3.63
2023-04-18T13:05:46.038Z,2.28
2023-04-18T13:08:47.938Z,3.33
2023-04-18T13:11:51.209Z,4.22
2023-04-18T13:14:53.194Z,2.60
2023-04-18T13:17:56.661Z,2.58
2023-04-18T13:20:58.732Z,2.90
2023-04-18T13:24:01.040Z,2.97
2023-04-18T13:27:10.234Z,2.95
2023-04-18T13:30:12.405Z,3.58
2023-04-18T13:33:15.395Z,3.85
2023-04-18T13:36:18.005Z,3.38
2023-04-18T13:39:20.414Z,3.47
2023-04-18T13:42:23.569Z,3.10
2023-04-18T13:45:25.743Z,3.28
2023-04-18T13:48:27.386Z,2.60
2023-04-18T13:51:29.106Z,2.92
2023-04-18T13:54:32.246Z,3.17
2023-04-18T13:57:37.422Z,2.92
2023-04-18T14:00:39.250Z,4.15
2023-04-18T14:03:43.590Z,4.72
2023-04-18T14:06:48.465Z,4.75
2023-04-18T14:09:52.060Z,3.90
2023-04-18T14:15:58.762Z,4.07
2023-04-18T14:19:02.423Z,3.10
2023-04-18T14:22:04.124Z,3.28
2023-04-18T14:25:08.485Z,3.78
2023-04-18T14:28:12.103Z,3.70
2023-04-18T14:31:14.387Z,4.93
2023-04-18T14:34:16.072Z,3.25
2023-04-18T14:37:17.913Z,3.08
2023-04-18T14:40:20.559Z,2.92
2023-04-18T14:43:23.704Z,3.55
2023-04-18T14:46:29.227Z,3.22
2023-04-18T14:49:31.007Z,2.47
2023-04-18T14:52:32.949Z,2.75
2023-04-18T14:55:34.796Z,3.13
2023-04-18T14:58:37.865Z,3.38
2023-04-18T15:01:41.830Z,3.85
2023-04-18T15:04:43.941Z,3.33
2023-04-18T15:07:46.952Z,3.25
2023-04-18T15:10:48.822Z,2.85
2023-04-18T15:13:52.164Z,3.08
2023-04-18T15:16:54.067Z,2.65
2023-04-18T15:19:55.945Z,3.45
2023-04-18T15:22:57.643Z,2.67
2023-04-18T15:25:59.389Z,3.10
2023-04-18T15:29:05.520Z,3.38
2023-04-18T15:32:07.354Z,3.22
2023-04-18T15:35:09.802Z,3.17
2023-04-18T15:38:12.248Z,3.40
2023-04-18T15:41:14.042Z,4.25
2023-04-18T15:44:17.088Z,3.70
2023-04-18T15:47:18.926Z,4.07
2023-04-18T15:50:20.873Z,3.75
2023-04-18T15:53:22.586Z,4.13
2023-04-18T15:56:26.105Z,3.20
2023-04-18T15:59:29.214Z,3.10
2023-04-18T16:02:31.280Z,3.72
2023-04-18T16:05:32.997Z,2.88
2023-04-18T16:08:34.746Z,3.10
2023-04-18T16:11:36.560Z,3.90
2023-04-18T16:14:39.685Z,3.33
2023-04-18T16:17:41.432Z,3.90
2023-04-18T16:20:43.297Z,2.85
2023-04-18T16:23:44.972Z,2.90
2023-04-18T16:26:46.915Z,3.08
2023-04-18T16:29:50.085Z,4.18
2023-04-18T16:32:52.214Z,4.00
2023-04-18T16:35:57.638Z,3.35
2023-04-18T16:38:59.311Z,5.43
2023-04-18T16:42:01.458Z,4.18
2023-04-18T16:45:05.471Z,2.60
2023-04-18T16:48:07.356Z,2.88
2023-04-18T16:51:09.166Z,3.45
2023-04-18T16:54:11.083Z,3.42
2023-04-18T16:57:13.145Z,3.05
2023-04-18T17:00:16.718Z,2.80
2023-04-18T17:03:18.756Z,3.30
2023-04-18T17:06:22.773Z,3.03
2023-04-18T17:12:48.893Z,3.03
2023-04-18T17:15:52.051Z,3.22
2023-04-18T17:18:53.972Z,4.60
2023-04-18T17:21:55.683Z,2.90
2023-04-18T17:24:57.448Z,4.47
2023-04-18T17:28:02.056Z,2.88
2023-04-18T17:34:06.946Z,4.70
2023-04-18T17:37:08.795Z,3.90
2023-04-18T17:40:11.901Z,5.70
2023-04-18T17:43:13.566Z,3.05
2023-04-18T17:46:17.081Z,3.42
2023-04-18T17:49:18.973Z,3.50
2023-04-18T17:52:21.618Z,3.22
2023-04-18T17:55:23.413Z,5.78
2023-04-18T17:58:25.847Z,5.20
2023-04-18T18:01:30.422Z,4.50
2023-04-18T18:04:32.488Z,4.40
2023-04-18T18:07:37.187Z,3.63
2023-04-18T18:10:39.539Z,3.40
2023-04-18T18:13:41.464Z,4.40
2023-04-18T18:16:44.637Z,3.58
2023-04-18T18:19:46.530Z,3.60
2023-04-18T18:22:48.539Z,4.95
2023-04-18T18:25:50.815Z,4.72
2023-04-18T18:28:52.950Z,4.63
2023-04-18T18:31:57.177Z,4.38
2023-04-18T18:34:59.858Z,6.00
2023-04-18T18:38:01.702Z,4.38
2023-04-18T18:41:04.653Z,5.43
2023-04-18T18:44:07.593Z,4.55
2023-04-18T18:47:10.785Z,4.53
2023-04-18T18:50:12.651Z,4.07
2023-04-18T18:53:18.087Z,4.28
2023-04-18T18:56:19.762Z,3.92
2023-04-18T18:59:21.438Z,5.20
2023-04-18T19:02:24.984Z,4.55
2023-04-18T19:05:27.487Z,4.03
2023-04-18T19:08:30.688Z,5.47
2023-04-18T19:11:32.574Z,4.82
2023-04-18T19:14:34.705Z,5.00
2023-04-18T19:17:37.948Z,4.72
2023-04-18T19:20:41.588Z,4.55
2023-04-18T19:24:03.216Z,4.43
2023-04-18T19:27:05.178Z,4.63
2023-04-18T19:30:09.532Z,4.35
2023-04-18T19:33:12.693Z,4.45
2023-04-18T19:36:14.356Z,6.43
2023-04-18T19:39:17.365Z,4.93
2023-04-18T19:42:19.245Z,4.72
2023-04-18T19:45:20.987Z,7.60
2023-04-18T19:48:24.103Z,5.78
2023-04-18T19:51:27.604Z,7.60
2023-04-18T19:54:32.355Z,5.13
2023-04-18T19:57:38.937Z,5.57
2023-04-18T20:00:41.543Z,6.15
2023-04-18T20:03:44.942Z,6.72
2023-04-18T20:06:46.767Z,6.70
2023-04-18T20:09:48.585Z,6.50
2023-04-18T20:12:50.429Z,6.70
2023-04-18T20:15:53.491Z,6.15
2023-04-18T20:18:56.836Z,6.43
2023-04-18T20:21:58.607Z,6.63
2023-04-18T20:25:01.131Z,5.78
2023-04-18T20:28:03.243Z,9.60
2023-04-18T20:31:05.274Z,6.22
2023-04-18T20:34:09.651Z,6.00
2023-04-18T20:37:11.460Z,6.32
2023-04-18T20:40:13.152Z,5.50
2023-04-18T20:43:17.324Z,6.57
2023-04-18T20:46:19.369Z,6.28
2023-04-18T20:49:22.760Z,8.20
2023-04-18T20:52:24.876Z,8.23
2023-04-18T20:55:26.731Z,8.15
2023-04-18T20:58:28.482Z,7.05
2023-04-18T21:01:31.044Z,8.30
2023-04-18T21:04:34.301Z,6.93
2023-04-18T21:07:36.868Z,5.70
2023-04-18T21:10:38.707Z,5.20
2023-04-18T21:13:40.576Z,8.15
2023-04-18T21:16:42.491Z,6.32
2023-04-18T21:19:46.283Z,8.60
2023-04-18T21:22:48.233Z,7.68
2023-04-18T21:25:49.920Z,5.97
2023-04-18T21:28:56.100Z,5.97
2023-04-18T21:31:58.200Z,7.35
2023-04-18T21:35:01.507Z,6.82
2023-04-18T21:38:03.432Z,7.95
2023-04-18T21:41:05.897Z,6.00
2023-04-18T21:44:07.588Z,6.18
2023-04-18T21:47:09.527Z,5.68
2023-04-18T21:50:13.090Z,5.75
2023-04-18T21:53:15.045Z,5.57
2023-04-18T21:56:17.093Z,6.38
2023-04-18T21:59:18.872Z,5.38
2023-04-18T22:02:21.355Z,5.78
2023-04-18T22:05:26.381Z,5.53
2023-04-18T22:08:29.458Z,5.90
2023-04-18T22:11:32.148Z,4.82
2023-04-18T22:14:33.930Z,5.35
2023-04-18T22:17:37.824Z,5.03
2023-04-18T22:20:44.095Z,5.72
2023-04-18T22:23:45.885Z,5.72
2023-04-18T22:26:47.947Z,5.80
2023-04-18T22:29:49.789Z,5.40
2023-04-18T22:32:51.711Z,7.80
2023-04-18T22:35:55.746Z,4.93
2023-04-18T22:38:57.804Z,6.35
2023-04-18T22:41:59.577Z,6.70
2023-04-18T22:45:01.416Z,4.47
2023-04-18T22:48:03.546Z,4.07
2023-04-18T22:51:07.517Z,5.25
2023-04-18T22:54:09.414Z,3.58
2023-04-18T22:57:11.314Z,5.43
2023-04-18T23:00:13.662Z,3.17
2023-04-18T23:03:15.694Z,4.25
2023-04-18T23:06:19.229Z,3.22
2023-04-18T23:09:20.913Z,5.47
2023-04-18T23:12:22.750Z,3.85
2023-04-18T23:15:26.361Z,4.55
2023-04-18T23:18:29.512Z,5.05
2023-04-18T23:21:32.813Z,5.50
2023-04-18T23:24:34.567Z,5.07
2023-04-18T23:27:36.284Z,4.07
2023-04-18T23:30:37.933Z,3.90
2023-04-18T23:33:39.597Z,4.72
2023-04-18T23:36:42.739Z,5.70
2023-04-18T23:39:44.763Z,3.65
2023-04-18T23:42:47.106Z,4.80
2023-04-18T23:45:48.831Z,3.72
2023-04-18T23:48:50.867Z,3.58
2023-04-18T23:51:54.282Z,3.47
2023-04-18T23:54:59.385Z,4.20
2023-04-18T23:58:01.255Z,3.42
